sensor_id;sensor_type;location;lat;lon;timestamp;pressure;altitude;pressure_sealevel;temperature;humidity
49459;BME280;35354;51.296;16.924;2023-06-22T00:01:03;99786.63;;;23.20;96.77
49459;BME280;35354;51.296;16.924;2023-06-22T00:03:28;99785.06;;;23.17;96.66
49459;BME280;35354;51.296;16.924;2023-06-22T00:05:53;99808.78;;;23.28;96.85
49459;BME280;35354;51.296;16.924;2023-06-22T00:08:19;99765.47;;;23.00;96.52
49459;BME280;35354;51.296;16.924;2023-06-22T00:10:45;99817.47;;;23.30;96.80
49459;BME280;35354;51.296;16.924;2023-06-22T00:13:12;99774.41;;;22.99;97.08
49459;BME280;35354;51.296;16.924;2023-06-22T00:15:39;99799.97;;;23.10;97.26
49459;BME280;35354;51.296;16.924;2023-06-22T00:18:10;99798.72;;;23.04;97.87
49459;BME280;35354;51.296;16.924;2023-06-22T00:20:36;99822.97;;;23.19;97.52
49459;BME280;35354;51.296;16.924;2023-06-22T00:23:03;99790.66;;;22.96;98.30
49459;BME280;35354;51.296;16.924;2023-06-22T00:25:37;99798.78;;;22.95;98.71
49459;BME280;35354;51.296;16.924;2023-06-22T00:28:05;99822.50;;;23.06;99.10
49459;BME280;35354;51.296;16.924;2023-06-22T00:30:31;99819.28;;;23.02;99.40
49459;BME280;35354;51.296;16.924;2023-06-22T00:32:57;99837.28;;;23.08;99.38
49459;BME280;35354;51.296;16.924;2023-06-22T00:35:23;99828.97;;;22.94;100.00
49459;BME280;35354;51.296;16.924;2023-06-22T00:37:55;99831.63;;;22.94;100.00
49459;BME280;35354;51.296;16.924;2023-06-22T00:40:29;99832.84;;;22.99;99.79
49459;BME280;35354;51.296;16.924;2023-06-22T00:42:56;99832.88;;;22.89;99.98
49459;BME280;35354;51.296;16.924;2023-06-22T00:45:24;99828.19;;;22.74;100.00
49459;BME280;35354;51.296;16.924;2023-06-22T00:47:55;99833.47;;;22.74;100.00
49459;BME280;35354;51.296;16.924;2023-06-22T00:50:24;99841.16;;;22.77;100.00
49459;BME280;35354;51.296;16.924;2023-06-22T00:52:58;99864.19;;;22.86;100.00
49459;BME280;35354;51.296;16.924;2023-06-22T00:55:24;99825.69;;;22.62;100.00
49459;BME280;35354;51.296;16.924;2023-06-22T00:57:51;99855.97;;;22.79;100.00
49459;BME280;35354;51.296;16.924;2023-06-22T01:00:21;99845.38;;;22.70;100.00
49459;BME280;35354;51.296;16.924;2023-06-22T01:02:50;99855.72;;;22.73;100.00
49459;BME280;35354;51.296;16.924;2023-06-22T01:05:21;99862.69;;;22.74;100.00
49459;BME280;35354;51.296;16.924;2023-06-22T01:13:18;99839.69;;;22.55;100.00
49459;BME280;35354;51.296;16.924;2023-06-22T01:15:54;99860.19;;;22.62;100.00
49459;BME280;35354;51.296;16.924;2023-06-22T01:18:22;99835.81;;;22.39;100.00
49459;BME280;35354;51.296;16.924;2023-06-22T01:20:52;99845.00;;;22.45;100.00
49459;BME280;35354;51.296;16.924;2023-06-22T01:26:17;99862.63;;;22.46;100.00
49459;BME280;35354;51.296;16.924;2023-06-22T01:28:54;99826.91;;;22.21;100.00
49459;BME280;35354;51.296;16.924;2023-06-22T01:31:24;99839.44;;;22.29;100.00
49459;BME280;35354;51.296;16.924;2023-06-22T01:33:52;99844.50;;;22.22;100.00
49459;BME280;35354;51.296;16.924;2023-06-22T01:36:19;99873.56;;;22.33;100.00
49459;BME280;35354;51.296;16.924;2023-06-22T01:38:47;99830.78;;;22.07;100.00
49459;BME280;35354;51.296;16.924;2023-06-22T01:41:12;99857.22;;;22.19;100.00
49459;BME280;35354;51.296;16.924;2023-06-22T01:43:38;99846.28;;;22.02;100.00
49459;BME280;35354;51.296;16.924;2023-06-22T01:46:04;99876.34;;;22.12;100.00
49459;BME280;35354;51.296;16.924;2023-06-22T01:48:30;99874.22;;;22.06;100.00
49459;BME280;35354;51.296;16.924;2023-06-22T01:50:56;99879.50;;;22.06;100.00
49459;BME280;35354;51.296;16.924;2023-06-22T01:53:22;99854.78;;;21.86;100.00
49459;BME280;35354;51.296;16.924;2023-06-22T01:55:48;99856.19;;;21.81;100.00
49459;BME280;35354;51.296;16.924;2023-06-22T01:58:14;99826.88;;;21.63;100.00
49459;BME280;35354;51.296;16.924;2023-06-22T02:00:46;99844.03;;;21.68;100.00
49459;BME280;35354;51.296;16.924;2023-06-22T02:03:19;99868.06;;;21.77;100.00
49459;BME280;35354;51.296;16.924;2023-06-22T02:05:50;99861.63;;;21.70;100.00
49459;BME280;35354;51.296;16.924;2023-06-22T02:08:41;99878.91;;;21.74;100.00
49459;BME280;35354;51.296;16.924;2023-06-22T02:11:08;99860.06;;;21.57;100.00
49459;BME280;35354;51.296;16.924;2023-06-22T02:13:36;99836.19;;;21.38;100.00
49459;BME280;35354;51.296;16.924;2023-06-22T02:16:01;99875.56;;;21.62;100.00
49459;BME280;35354;51.296;16.924;2023-06-22T02:18:27;99870.41;;;21.60;100.00
49459;BME280;35354;51.296;16.924;2023-06-22T02:20:53;99865.09;;;21.60;100.00
49459;BME280;35354;51.296;16.924;2023-06-22T02:23:18;99863.97;;;21.53;100.00
49459;BME280;35354;51.296;16.924;2023-06-22T02:25:44;99876.81;;;21.58;100.00
49459;BME280;35354;51.296;16.924;2023-06-22T02:28:09;99863.81;;;21.45;100.00
49459;BME280;35354;51.296;16.924;2023-06-22T02:30:35;99847.56;;;21.29;100.00
49459;BME280;35354;51.296;16.924;2023-06-22T02:33:00;99852.88;;;21.29;100.00
49459;BME280;35354;51.296;16.924;2023-06-22T02:35:26;99849.75;;;21.24;100.00
49459;BME280;35354;51.296;16.924;2023-06-22T02:37:52;99866.13;;;21.29;100.00
49459;BME280;35354;51.296;16.924;2023-06-22T02:40:17;99882.47;;;21.34;100.00
49459;BME280;35354;51.296;16.924;2023-06-22T02:42:43;99861.34;;;21.23;100.00
49459;BME280;35354;51.296;16.924;2023-06-22T02:45:08;99876.56;;;21.30;100.00
49459;BME280;35354;51.296;16.924;2023-06-22T02:47:34;99864.28;;;21.20;100.00
49459;BME280;35354;51.296;16.924;2023-06-22T02:50:00;99873.88;;;21.21;100.00
49459;BME280;35354;51.296;16.924;2023-06-22T02:52:26;99845.00;;;21.08;100.00
49459;BME280;35354;51.296;16.924;2023-06-22T02:54:51;99876.41;;;21.22;100.00
49459;BME280;35354;51.296;16.924;2023-06-22T02:57:17;99873.31;;;21.17;100.00
49459;BME280;35354;51.296;16.924;2023-06-22T02:59:43;99862.97;;;21.14;100.00
49459;BME280;35354;51.296;16.924;2023-06-22T03:02:08;99874.31;;;21.26;100.00
49459;BME280;35354;51.296;16.924;2023-06-22T03:04:35;99864.81;;;21.23;100.00
49459;BME280;35354;51.296;16.924;2023-06-22T03:07:00;99871.16;;;21.32;100.00
49459;BME280;35354;51.296;16.924;2023-06-22T03:09:29;99852.56;;;21.22;100.00
49459;BME280;35354;51.296;16.924;2023-06-22T03:11:55;99878.56;;;21.38;100.00
49459;BME280;35354;51.296;16.924;2023-06-22T03:14:20;99891.16;;;21.46;100.00
49459;BME280;35354;51.296;16.924;2023-06-22T03:16:46;99887.66;;;21.45;100.00
49459;BME280;35354;51.296;16.924;2023-06-22T03:19:12;99892.69;;;21.48;100.00
49459;BME280;35354;51.296;16.924;2023-06-22T03:21:38;99910.00;;;21.52;100.00
49459;BME280;35354;51.296;16.924;2023-06-22T03:24:07;99877.59;;;21.39;100.00
49459;BME280;35354;51.296;16.924;2023-06-22T03:26:33;99880.56;;;21.46;100.00
49459;BME280;35354;51.296;16.924;2023-06-22T03:28:58;99870.06;;;21.44;100.00
49459;BME280;35354;51.296;16.924;2023-06-22T03:31:23;99894.13;;;21.62;100.00
49459;BME280;35354;51.296;16.924;2023-06-22T03:33:50;99892.56;;;21.59;100.00
49459;BME280;35354;51.296;16.924;2023-06-22T03:36:16;99913.38;;;21.74;100.00
49459;BME280;35354;51.296;16.924;2023-06-22T03:38:46;99881.84;;;21.61;100.00
49459;BME280;35354;51.296;16.924;2023-06-22T03:41:12;99899.28;;;21.73;100.00
49459;BME280;35354;51.296;16.924;2023-06-22T03:43:37;99870.81;;;21.56;100.00
49459;BME280;35354;51.296;16.924;2023-06-22T03:46:03;99904.75;;;21.72;100.00
49459;BME280;35354;51.296;16.924;2023-06-22T03:48:28;99896.94;;;21.70;100.00
49459;BME280;35354;51.296;16.924;2023-06-22T03:50:53;99882.81;;;21.60;100.00
49459;BME280;35354;51.296;16.924;2023-06-22T03:53:19;99900.69;;;21.67;100.00
49459;BME280;35354;51.296;16.924;2023-06-22T03:55:49;99903.06;;;21.71;100.00
49459;BME280;35354;51.296;16.924;2023-06-22T03:58:15;99896.81;;;21.81;100.00
49459;BME280;35354;51.296;16.924;2023-06-22T04:00:40;99889.25;;;21.67;100.00
49459;BME280;35354;51.296;16.924;2023-06-22T04:03:06;99898.88;;;21.68;100.00
49459;BME280;35354;51.296;16.924;2023-06-22T04:05:32;99928.34;;;21.94;100.00
49459;BME280;35354;51.296;16.924;2023-06-22T04:07:57;99926.13;;;21.99;100.00
49459;BME280;35354;51.296;16.924;2023-06-22T04:10:23;99938.47;;;22.20;100.00
49459;BME280;35354;51.296;16.924;2023-06-22T04:12:48;99931.34;;;22.39;100.00
49459;BME280;35354;51.296;16.924;2023-06-22T04:15:14;99944.88;;;22.65;100.00
49459;BME280;35354;51.296;16.924;2023-06-22T04:17:39;99957.31;;;22.84;100.00
49459;BME280;35354;51.296;16.924;2023-06-22T04:20:05;99929.91;;;22.74;100.00
49459;BME280;35354;51.296;16.924;2023-06-22T04:22:31;99948.91;;;22.89;100.00
49459;BME280;35354;51.296;16.924;2023-06-22T04:24:56;99953.97;;;23.29;100.00
49459;BME280;35354;51.296;16.924;2023-06-22T04:27:21;99910.56;;;23.38;98.04
49459;BME280;35354;51.296;16.924;2023-06-22T04:29:48;99926.59;;;24.02;95.21
49459;BME280;35354;51.296;16.924;2023-06-22T04:32:15;99952.78;;;24.60;91.92
49459;BME280;35354;51.296;16.924;2023-06-22T04:34:40;99942.13;;;24.86;91.47
49459;BME280;35354;51.296;16.924;2023-06-22T04:37:06;99938.16;;;24.82;90.18
49459;BME280;35354;51.296;16.924;2023-06-22T04:39:31;99921.72;;;24.69;90.53
49459;BME280;35354;51.296;16.924;2023-06-22T04:41:56;99935.03;;;24.69;91.62
49459;BME280;35354;51.296;16.924;2023-06-22T04:44:25;99958.19;;;24.94;91.27
49459;BME280;35354;51.296;16.924;2023-06-22T04:46:52;99963.44;;;25.04;90.61
49459;BME280;35354;51.296;16.924;2023-06-22T04:49:26;99943.84;;;25.13;89.79
49459;BME280;35354;51.296;16.924;2023-06-22T04:52:02;99945.50;;;25.48;87.96
49459;BME280;35354;51.296;16.924;2023-06-22T04:54:28;99970.44;;;26.16;85.79
49459;BME280;35354;51.296;16.924;2023-06-22T04:56:53;99963.44;;;27.04;82.52
49459;BME280;35354;51.296;16.924;2023-06-22T04:59:27;99950.16;;;27.52;79.55
49459;BME280;35354;51.296;16.924;2023-06-22T05:01:59;99976.34;;;27.65;78.48
49459;BME280;35354;51.296;16.924;2023-06-22T05:04:25;99975.34;;;27.18;80.50
49459;BME280;35354;51.296;16.924;2023-06-22T05:06:54;99949.47;;;26.70;81.76
49459;BME280;35354;51.296;16.924;2023-06-22T05:09:20;99960.47;;;26.67;82.00
49459;BME280;35354;51.296;16.924;2023-06-22T05:11:45;99974.03;;;26.65;83.17
49459;BME280;35354;51.296;16.924;2023-06-22T05:14:11;99965.81;;;26.75;82.73
49459;BME280;35354;51.296;16.924;2023-06-22T05:16:38;99961.44;;;27.23;81.07
49459;BME280;35354;51.296;16.924;2023-06-22T05:19:03;99943.03;;;27.67;78.67
49459;BME280;35354;51.296;16.924;2023-06-22T05:21:29;99960.03;;;28.14;76.99
49459;BME280;35354;51.296;16.924;2023-06-22T05:23:55;99951.16;;;28.13;77.37
49459;BME280;35354;51.296;16.924;2023-06-22T05:26:25;99935.00;;;27.75;77.70
49459;BME280;35354;51.296;16.924;2023-06-22T05:28:51;99962.03;;;27.49;78.05
49459;BME280;35354;51.296;16.924;2023-06-22T05:31:17;99963.38;;;27.45;77.82
49459;BME280;35354;51.296;16.924;2023-06-22T05:33:43;99947.81;;;27.49;77.84
49459;BME280;35354;51.296;16.924;2023-06-22T05:36:08;99930.50;;;27.68;76.32
49459;BME280;35354;51.296;16.924;2023-06-22T05:38:35;99964.03;;;28.18;74.97
49459;BME280;35354;51.296;16.924;2023-06-22T05:41:01;99944.53;;;28.32;72.76
49459;BME280;35354;51.296;16.924;2023-06-22T05:43:26;99916.31;;;28.21;73.22
49459;BME280;35354;51.296;16.924;2023-06-22T05:45:51;99950.97;;;28.15;73.02
49459;BME280;35354;51.296;16.924;2023-06-22T05:48:17;99954.47;;;27.92;73.48
49459;BME280;35354;51.296;16.924;2023-06-22T05:50:42;99960.97;;;27.98;73.22
49459;BME280;35354;51.296;16.924;2023-06-22T05:53:08;99971.13;;;27.71;74.15
49459;BME280;35354;51.296;16.924;2023-06-22T05:55:33;99956.44;;;27.59;72.41
49459;BME280;35354;51.296;16.924;2023-06-22T05:57:58;99954.38;;;27.38;72.91
49459;BME280;35354;51.296;16.924;2023-06-22T06:00:24;99960.38;;;27.40;73.18
49459;BME280;35354;51.296;16.924;2023-06-22T06:02:49;99980.16;;;27.31;73.63
49459;BME280;35354;51.296;16.924;2023-06-22T06:05:15;99960.41;;;27.32;71.87
49459;BME280;35354;51.296;16.924;2023-06-22T06:07:42;99957.31;;;27.51;71.02
49459;BME280;35354;51.296;16.924;2023-06-22T06:10:07;99990.78;;;27.95;69.87
49459;BME280;35354;51.296;16.924;2023-06-22T06:12:33;99992.19;;;28.14;68.95
49459;BME280;35354;51.296;16.924;2023-06-22T06:14:58;99984.25;;;28.51;67.89
49459;BME280;35354;51.296;16.924;2023-06-22T06:17:23;99961.41;;;28.78;66.58
49459;BME280;35354;51.296;16.924;2023-06-22T06:19:49;99992.31;;;28.89;66.52
49459;BME280;35354;51.296;16.924;2023-06-22T06:22:14;99983.50;;;29.03;65.33
49459;BME280;35354;51.296;16.924;2023-06-22T06:24:40;99986.22;;;28.95;66.47
49459;BME280;35354;51.296;16.924;2023-06-22T06:27:05;99991.19;;;29.51;65.41
49459;BME280;35354;51.296;16.924;2023-06-22T06:29:31;99988.88;;;30.14;63.05
49459;BME280;35354;51.296;16.924;2023-06-22T06:31:57;100000.31;;;31.01;61.24
49459;BME280;35354;51.296;16.924;2023-06-22T06:34:22;100011.22;;;31.97;59.43
49459;BME280;35354;51.296;16.924;2023-06-22T06:36:48;99982.75;;;32.69;57.28
49459;BME280;35354;51.296;16.924;2023-06-22T06:39:13;99989.16;;;33.48;56.28
49459;BME280;35354;51.296;16.924;2023-06-22T06:41:38;100011.50;;;34.20;54.05
49459;BME280;35354;51.296;16.924;2023-06-22T06:44:04;99983.38;;;34.59;53.51
49459;BME280;35354;51.296;16.924;2023-06-22T06:46:29;100011.34;;;35.65;52.48
49459;BME280;35354;51.296;16.924;2023-06-22T06:48:55;100002.81;;;35.98;50.90
49459;BME280;35354;51.296;16.924;2023-06-22T06:51:20;100025.34;;;35.98;51.42
49459;BME280;35354;51.296;16.924;2023-06-22T06:53:45;100015.66;;;34.61;52.19
49459;BME280;35354;51.296;16.924;2023-06-22T06:56:11;99990.00;;;32.82;55.02
49459;BME280;35354;51.296;16.924;2023-06-22T06:58:36;100025.16;;;31.73;58.17
49459;BME280;35354;51.296;16.924;2023-06-22T07:01:02;99999.59;;;30.93;60.11
49459;BME280;35354;51.296;16.924;2023-06-22T07:03:28;99999.22;;;30.53;61.42
49459;BME280;35354;51.296;16.924;2023-06-22T07:05:53;100029.19;;;30.14;62.70
49459;BME280;35354;51.296;16.924;2023-06-22T07:08:19;100037.97;;;29.71;64.49
49459;BME280;35354;51.296;16.924;2023-06-22T07:10:44;100033.56;;;29.26;65.18
49459;BME280;35354;51.296;16.924;2023-06-22T07:13:09;100031.03;;;29.09;65.88
49459;BME280;35354;51.296;16.924;2023-06-22T07:15:35;100026.03;;;29.06;67.03
49459;BME280;35354;51.296;16.924;2023-06-22T07:18:00;100015.03;;;31.34;62.62
49459;BME280;35354;51.296;16.924;2023-06-22T07:20:25;100025.56;;;33.90;57.27
49459;BME280;35354;51.296;16.924;2023-06-22T07:22:51;100038.09;;;35.61;53.45
49459;BME280;35354;51.296;16.924;2023-06-22T07:25:16;100016.88;;;36.67;50.65
49459;BME280;35354;51.296;16.924;2023-06-22T07:28:06;100037.84;;;36.60;50.41
49459;BME280;35354;51.296;16.924;2023-06-22T07:30:33;100035.56;;;35.23;51.48
49459;BME280;35354;51.296;16.924;2023-06-22T07:32:59;100029.50;;;33.94;54.08
49459;BME280;35354;51.296;16.924;2023-06-22T07:35:29;100035.88;;;33.35;55.92
49459;BME280;35354;51.296;16.924;2023-06-22T07:37:54;100018.06;;;33.14;56.42
49459;BME280;35354;51.296;16.924;2023-06-22T07:40:20;100025.97;;;33.87;54.90
49459;BME280;35354;51.296;16.924;2023-06-22T07:42:45;100042.47;;;34.24;55.19
49459;BME280;35354;51.296;16.924;2023-06-22T07:45:13;100038.22;;;34.48;54.32
49459;BME280;35354;51.296;16.924;2023-06-22T07:47:39;100040.91;;;34.48;55.33
49459;BME280;35354;51.296;16.924;2023-06-22T07:50:04;100031.16;;;35.65;52.63
49459;BME280;35354;51.296;16.924;2023-06-22T07:52:30;99996.47;;;36.76;50.19
49459;BME280;35354;51.296;16.924;2023-06-22T07:54:56;100005.03;;;37.79;49.33
49459;BME280;35354;51.296;16.924;2023-06-22T07:57:21;100008.28;;;38.50;48.21
49459;BME280;35354;51.296;16.924;2023-06-22T07:59:47;100006.19;;;39.63;47.55
49459;BME280;35354;51.296;16.924;2023-06-22T08:02:12;100010.84;;;40.65;45.80
49459;BME280;35354;51.296;16.924;2023-06-22T08:04:38;100020.72;;;41.04;43.91
49459;BME280;35354;51.296;16.924;2023-06-22T08:07:03;100018.41;;;40.90;44.39
49459;BME280;35354;51.296;16.924;2023-06-22T08:09:31;100008.78;;;41.15;43.67
49459;BME280;35354;51.296;16.924;2023-06-22T08:11:57;100011.75;;;41.61;43.17
49459;BME280;35354;51.296;16.924;2023-06-22T08:14:24;99998.91;;;41.09;43.14
49459;BME280;35354;51.296;16.924;2023-06-22T08:16:50;100000.91;;;39.56;44.55
49459;BME280;35354;51.296;16.924;2023-06-22T08:19:15;99997.81;;;38.13;46.82
49459;BME280;35354;51.296;16.924;2023-06-22T08:21:41;100006.22;;;36.23;49.87
49459;BME280;35354;51.296;16.924;2023-06-22T08:24:06;100009.72;;;35.02;51.61
49459;BME280;35354;51.296;16.924;2023-06-22T08:26:33;99996.75;;;34.22;53.72
49459;BME280;35354;51.296;16.924;2023-06-22T08:29:01;99990.25;;;33.85;54.28
49459;BME280;35354;51.296;16.924;2023-06-22T08:31:27;99968.00;;;33.25;54.93
49459;BME280;35354;51.296;16.924;2023-06-22T08:33:52;99976.53;;;33.15;55.57
49459;BME280;35354;51.296;16.924;2023-06-22T08:36:18;99947.50;;;32.71;55.53
49459;BME280;35354;51.296;16.924;2023-06-22T08:38:43;99937.06;;;32.15;56.20
49459;BME280;35354;51.296;16.924;2023-06-22T08:41:09;99943.44;;;31.94;57.42
49459;BME280;35354;51.296;16.924;2023-06-22T08:43:35;99938.94;;;31.60;57.49
49459;BME280;35354;51.296;16.924;2023-06-22T08:46:00;99945.53;;;31.44;57.89
49459;BME280;35354;51.296;16.924;2023-06-22T08:48:27;99950.88;;;31.09;58.25
49459;BME280;35354;51.296;16.924;2023-06-22T08:50:53;99953.00;;;30.86;58.61
49459;BME280;35354;51.296;16.924;2023-06-22T08:53:18;99932.28;;;30.58;58.62
49459;BME280;35354;51.296;16.924;2023-06-22T08:55:43;99936.91;;;30.43;59.29
49459;BME280;35354;51.296;16.924;2023-06-22T08:58:10;99953.53;;;30.31;60.09
49459;BME280;35354;51.296;16.924;2023-06-22T09:00:35;99971.44;;;30.46;60.27
49459;BME280;35354;51.296;16.924;2023-06-22T09:03:01;99957.88;;;30.54;59.08
49459;BME280;35354;51.296;16.924;2023-06-22T09:05:26;99954.03;;;30.63;59.74
49459;BME280;35354;51.296;16.924;2023-06-22T09:07:52;99952.34;;;30.84;59.83
49459;BME280;35354;51.296;16.924;2023-06-22T09:10:19;99953.75;;;30.73;59.05
49459;BME280;35354;51.296;16.924;2023-06-22T09:12:45;99972.59;;;30.79;58.85
49459;BME280;35354;51.296;16.924;2023-06-22T09:15:10;99969.38;;;30.91;58.92
49459;BME280;35354;51.296;16.924;2023-06-22T09:17:36;99944.44;;;30.75;58.78
49459;BME280;35354;51.296;16.924;2023-06-22T09:20:02;99931.81;;;30.54;59.35
49459;BME280;35354;51.296;16.924;2023-06-22T09:22:31;99981.19;;;30.47;59.33
49459;BME280;35354;51.296;16.924;2023-06-22T09:24:56;99951.38;;;30.20;59.26
49459;BME280;35354;51.296;16.924;2023-06-22T09:27:22;99960.34;;;30.13;59.48
49459;BME280;35354;51.296;16.924;2023-06-22T09:29:48;99969.09;;;30.00;59.37
49459;BME280;35354;51.296;16.924;2023-06-22T09:32:13;99944.84;;;29.42;60.00
49459;BME280;35354;51.296;16.924;2023-06-22T09:34:38;99959.81;;;29.51;59.64
49459;BME280;35354;51.296;16.924;2023-06-22T09:37:04;99956.22;;;29.29;59.85
49459;BME280;35354;51.296;16.924;2023-06-22T09:39:29;99967.75;;;29.00;61.08
49459;BME280;35354;51.296;16.924;2023-06-22T09:41:55;99958.75;;;28.93;61.27
49459;BME280;35354;51.296;16.924;2023-06-22T09:44:20;99969.78;;;28.98;62.05
49459;BME280;35354;51.296;16.924;2023-06-22T09:46:45;99960.81;;;29.06;61.35
49459;BME280;35354;51.296;16.924;2023-06-22T09:49:11;99958.41;;;29.11;60.68
49459;BME280;35354;51.296;16.924;2023-06-22T09:51:36;99951.13;;;29.20;60.49
49459;BME280;35354;51.296;16.924;2023-06-22T09:54:01;99956.66;;;29.48;61.17
49459;BME280;35354;51.296;16.924;2023-06-22T09:56:27;99961.78;;;29.57;60.02
49459;BME280;35354;51.296;16.924;2023-06-22T09:58:53;99959.09;;;29.57;59.36
49459;BME280;35354;51.296;16.924;2023-06-22T10:01:19;99959.72;;;29.45;59.26
49459;BME280;35354;51.296;16.924;2023-06-22T10:03:46;99960.78;;;29.58;59.13
49459;BME280;35354;51.296;16.924;2023-06-22T10:06:11;99934.16;;;29.49;57.68
49459;BME280;35354;51.296;16.924;2023-06-22T10:08:36;99967.59;;;29.46;55.78
49459;BME280;35354;51.296;16.924;2023-06-22T10:11:03;99947.44;;;29.21;56.36
49459;BME280;35354;51.296;16.924;2023-06-22T10:13:28;99931.50;;;29.19;57.14
49459;BME280;35354;51.296;16.924;2023-06-22T10:15:53;99931.78;;;29.24;57.08
49459;BME280;35354;51.296;16.924;2023-06-22T10:18:19;99931.41;;;28.98;57.63
49459;BME280;35354;51.296;16.924;2023-06-22T10:20:47;99934.28;;;28.96;58.16
49459;BME280;35354;51.296;16.924;2023-06-22T10:23:13;99923.34;;;28.83;57.57
49459;BME280;35354;51.296;16.924;2023-06-22T10:25:39;99921.75;;;28.89;57.47
49459;BME280;35354;51.296;16.924;2023-06-22T10:28:04;99918.13;;;28.81;58.04
49459;BME280;35354;51.296;16.924;2023-06-22T10:30:29;99918.53;;;28.93;58.25
49459;BME280;35354;51.296;16.924;2023-06-22T10:32:55;99900.75;;;28.77;59.08
49459;BME280;35354;51.296;16.924;2023-06-22T10:35:20;99902.38;;;28.87;58.30
49459;BME280;35354;51.296;16.924;2023-06-22T10:37:46;99931.69;;;29.03;58.38
49459;BME280;35354;51.296;16.924;2023-06-22T10:40:17;99917.03;;;28.91;57.77
49459;BME280;35354;51.296;16.924;2023-06-22T10:42:44;99921.84;;;28.80;56.91
49459;BME280;35354;51.296;16.924;2023-06-22T10:45:09;99912.16;;;28.79;57.77
49459;BME280;35354;51.296;16.924;2023-06-22T10:47:35;99918.25;;;28.88;58.62
49459;BME280;35354;51.296;16.924;2023-06-22T10:50:01;99914.66;;;28.96;56.94
49459;BME280;35354;51.296;16.924;2023-06-22T10:52:27;99905.22;;;28.85;57.13
49459;BME280;35354;51.296;16.924;2023-06-22T10:54:52;99916.81;;;29.15;57.44
49459;BME280;35354;51.296;16.924;2023-06-22T10:57:18;99870.75;;;28.97;56.94
49459;BME280;35354;51.296;16.924;2023-06-22T10:59:43;99868.34;;;28.87;57.71
49459;BME280;35354;51.296;16.924;2023-06-22T11:02:08;99875.34;;;28.88;58.06
49459;BME280;35354;51.296;16.924;2023-06-22T11:04:34;99907.53;;;28.88;58.21
49459;BME280;35354;51.296;16.924;2023-06-22T11:06:59;99898.25;;;28.91;58.08
49459;BME280;35354;51.296;16.924;2023-06-22T11:09:24;99879.81;;;28.96;58.11
49459;BME280;35354;51.296;16.924;2023-06-22T11:11:51;99885.44;;;29.16;58.04
49459;BME280;35354;51.296;16.924;2023-06-22T11:14:19;99896.28;;;29.37;57.03
49459;BME280;35354;51.296;16.924;2023-06-22T11:16:44;99901.19;;;29.33;57.73
49459;BME280;35354;51.296;16.924;2023-06-22T11:19:09;99900.06;;;29.28;58.68
49459;BME280;35354;51.296;16.924;2023-06-22T11:21:35;99889.97;;;29.30;58.75
49459;BME280;35354;51.296;16.924;2023-06-22T11:24:00;99883.84;;;29.36;58.41
49459;BME280;35354;51.296;16.924;2023-06-22T11:26:26;99897.81;;;29.46;59.11
49459;BME280;35354;51.296;16.924;2023-06-22T11:28:52;99887.66;;;29.42;58.46
49459;BME280;35354;51.296;16.924;2023-06-22T11:31:18;99893.75;;;29.36;58.30
49459;BME280;35354;51.296;16.924;2023-06-22T11:33:43;99876.56;;;29.30;57.97
49459;BME280;35354;51.296;16.924;2023-06-22T11:36:11;99897.16;;;29.44;56.68
49459;BME280;35354;51.296;16.924;2023-06-22T11:38:36;99890.50;;;29.40;56.39
49459;BME280;35354;51.296;16.924;2023-06-22T11:41:05;99875.66;;;29.23;55.95
49459;BME280;35354;51.296;16.924;2023-06-22T11:43:30;99893.13;;;29.19;56.45
49459;BME280;35354;51.296;16.924;2023-06-22T11:45:56;99886.94;;;29.18;57.00
49459;BME280;35354;51.296;16.924;2023-06-22T11:48:23;99892.50;;;29.17;57.69
49459;BME280;35354;51.296;16.924;2023-06-22T11:50:49;99868.00;;;29.05;57.96
49459;BME280;35354;51.296;16.924;2023-06-22T11:53:14;99865.56;;;29.25;57.88
49459;BME280;35354;51.296;16.924;2023-06-22T11:55:42;99850.69;;;29.22;57.71
49459;BME280;35354;51.296;16.924;2023-06-22T11:58:07;99865.69;;;29.17;56.96
49459;BME280;35354;51.296;16.924;2023-06-22T12:00:33;99848.00;;;29.07;57.09
49459;BME280;35354;51.296;16.924;2023-06-22T12:02:58;99848.19;;;29.21;56.80
49459;BME280;35354;51.296;16.924;2023-06-22T12:05:24;99866.44;;;29.47;57.18
49459;BME280;35354;51.296;16.924;2023-06-22T12:07:50;99834.16;;;29.40;56.74
49459;BME280;35354;51.296;16.924;2023-06-22T12:10:15;99864.78;;;29.61;56.97
49459;BME280;35354;51.296;16.924;2023-06-22T12:12:41;99863.13;;;29.60;55.39
49459;BME280;35354;51.296;16.924;2023-06-22T12:15:09;99835.97;;;29.18;56.38
49459;BME280;35354;51.296;16.924;2023-06-22T12:17:34;99832.53;;;29.24;56.83
49459;BME280;35354;51.296;16.924;2023-06-22T12:20:00;99836.03;;;29.40;56.38
49459;BME280;35354;51.296;16.924;2023-06-22T12:22:26;99837.31;;;29.44;56.02
49459;BME280;35354;51.296;16.924;2023-06-22T12:24:52;99830.44;;;29.41;56.44
49459;BME280;35354;51.296;16.924;2023-06-22T12:27:17;99853.41;;;29.58;55.62
49459;BME280;35354;51.296;16.924;2023-06-22T12:29:46;99826.88;;;29.34;55.83
49459;BME280;35354;51.296;16.924;2023-06-22T12:32:11;99820.75;;;29.40;55.28
49459;BME280;35354;51.296;16.924;2023-06-22T12:34:42;99806.16;;;29.28;55.17
49459;BME280;35354;51.296;16.924;2023-06-22T12:37:07;99845.09;;;29.39;54.57
49459;BME280;35354;51.296;16.924;2023-06-22T12:39:33;99840.28;;;29.34;53.92
49459;BME280;35354;51.296;16.924;2023-06-22T12:41:58;99810.09;;;29.11;53.97
49459;BME280;35354;51.296;16.924;2023-06-22T12:44:23;99820.53;;;29.20;54.05
49459;BME280;35354;51.296;16.924;2023-06-22T12:46:49;99799.63;;;29.16;54.08
49459;BME280;35354;51.296;16.924;2023-06-22T12:49:14;99810.84;;;29.41;53.88